Paxton, Texas
Current Conditions -  °F | °C
As of 5:56 AM on Thursday 27 Nov 2014 (Local Time) from KSHV Reporting Station
Clear Clear  
Wind Chill:   Ceiling: Unl
Heat Index:   Visibility: 10mi
Dew Point: -1°   Wind: 9mph
Humidity: 60%   Direction: 350°N
Pressure: 30.45"   Gusts: NA
Location:  31.9194°N, 94.0667°W
Report Text: KSHV 271156Z 35008KT 10SM CLR 06/M01 A3045 RMK AO2 SLP312 T00611011 10089 20061 51017
Loading
Personal Weather Stations






























Interactive Weather Map New forecast layout! Learn more

10-Day Weather Forecast

Advertisements
Track Severe Weather on mobile